Negril Point, Jamaica

12:57 AM EST on March 02, 2015 (GMT -0500)
Hedonism II, Negril, Jamaica | Change Station
CLOSE
Current Station
Personal Weather Station
Location: Jamaica,
Elevation: 39 ft
Nearby Weather Stations

Elev 39 ft 18.34 °N, 78.34 °W | Updated 4 seconds ago

Partly Cloudy
Partly Cloudy
73.8 °F
Feels Like 73 °F
N
0.0
Wind Variable Wind from NNE
Gusts 0.0 mph

Today
High -- | Low -- °F
--% Chance of Precip.
Yesterday
High -- | Low -- °F
Precip. -- in
6:31 AM 6:19 PM
Waxing Gibbous, 89% visible
Pressure 30.06 in
Visibility 6.2 miles
Clouds Few 2200 ft
Heat Index 73 °F
Dew Point 70 °F
Humidity 87%
Rainfall 0.00 in
Snow Depth Not available.
UV 0 out of 12
Pollen Not available.
Air Quality Not available.
Flu Activity Not available.
METAR MKJS 020500Z 13003KT 9999 FEW022 25/23 Q1018

More Conditions Fewer Conditions

Pressure 30.06 in
Visibility 6.2 miles
Clouds Few 2200 ft
Heat Index 73 °F
Dew Point 70 °F
Humidity 87%
Rainfall 0.00 in
Snow Depth Not available.
UV 0 out of 12
Pollen Not available.
Air Quality Not available.
Flu Activity Not available.
METAR MKJS 020500Z 13003KT 9999 FEW022 25/23 Q1018

More Conditions Fewer Conditions

10-Day Weather Forecast

Almanac

Astronomy

Mar. 02, 2015 Rise Set
Actual Time
Civil Twilight
Nautical Twilight
Astronomical Twilight
Moon
Length of Visible Light
Length of Day
Tomorrow will be .
, % of the Moon is Illuminated

Today's Extremes

Country Highs Country Lows

Community

WunderPhotos

Upload Photos

1,801,735 photos uploaded!

WunderBlogs® & News

Nearby

Air Quality

  Air Quality AQ Index Pollutant
Not available.

Snow Depth

Station Depth Elevation

Earthquake Activity

City Distance Mag. Time & Date
Minimum magnitude displayed is 2.5.

Coastal Water Temperatures

Place Temperature

Nearby Weather Stations